createdAt,value
2022-08-10T00:01:40.661Z,48.77
2022-08-10T00:04:08.003Z,48.57
2022-08-10T00:06:36.419Z,48.59
2022-08-10T00:09:04.143Z,48.90
2022-08-10T00:11:31.439Z,48.88
2022-08-10T00:13:58.664Z,49.00
2022-08-10T00:16:27.952Z,49.19
2022-08-10T00:18:55.177Z,48.80
2022-08-10T00:21:22.433Z,49.38
2022-08-10T00:23:54.299Z,49.57
2022-08-10T00:26:22.076Z,50.23
2022-08-10T00:28:49.401Z,50.34
2022-08-10T00:31:16.810Z,50.40
2022-08-10T00:33:44.064Z,50.47
2022-08-10T00:36:11.361Z,50.51
2022-08-10T00:38:38.680Z,50.29
2022-08-10T00:41:06.096Z,50.11
2022-08-10T00:43:33.624Z,50.00
2022-08-10T00:46:00.871Z,49.99
2022-08-10T00:48:30.021Z,50.07
2022-08-10T00:50:59.338Z,50.07
2022-08-10T00:53:28.269Z,50.09
2022-08-10T00:57:12.665Z,49.99
2022-08-10T00:58:43.609Z,50.13
2022-08-10T01:02:09.314Z,50.10
2022-08-10T01:04:57.381Z,49.94
2022-08-10T01:06:59.330Z,49.71
2022-08-10T01:09:41.719Z,49.63
2022-08-10T01:12:47.624Z,49.75
2022-08-10T01:15:26.943Z,49.62
2022-08-10T01:18:02.561Z,49.59
2022-08-10T01:20:56.244Z,49.68
2022-08-10T01:23:54.659Z,49.89
2022-08-10T01:26:52.457Z,49.84
2022-08-10T01:29:39.233Z,49.85
2022-08-10T01:32:10.520Z,49.75
2022-08-10T01:34:49.749Z,49.97
2022-08-10T01:37:23.129Z,50.16
2022-08-10T01:39:56.498Z,50.21
2022-08-10T01:42:25.074Z,50.61
2022-08-10T01:44:56.411Z,50.47
2022-08-10T01:47:50.540Z,50.47
2022-08-10T01:50:36.003Z,50.68
2022-08-10T01:53:27.376Z,50.76
2022-08-10T01:56:08.569Z,50.75
2022-08-10T01:58:38.311Z,50.67
2022-08-10T02:01:09.557Z,50.49
2022-08-10T02:04:04.522Z,50.44
2022-08-10T02:06:29.615Z,50.57
2022-08-10T02:09:06.432Z,50.69
2022-08-10T02:12:06.036Z,50.65
2022-08-10T02:14:33.232Z,50.66
2022-08-10T02:17:09.462Z,50.90
2022-08-10T02:20:02.307Z,50.74
2022-08-10T02:22:36.531Z,50.70
2022-08-10T02:25:09.041Z,50.57
2022-08-10T02:27:37.841Z,50.60
2022-08-10T02:30:07.304Z,50.56
2022-08-10T02:32:38.330Z,50.53
2022-08-10T02:35:21.946Z,50.50
2022-08-10T02:37:53.208Z,50.56
2022-08-10T02:45:02.056Z,50.30
2022-08-10T02:45:20.242Z,50.36
2022-08-10T02:46:09.894Z,50.25
2022-08-10T02:48:45.889Z,50.18
2022-08-10T02:51:20.800Z,50.29
2022-08-10T02:54:13.652Z,50.30
2022-08-10T02:56:51.530Z,50.51
2022-08-10T02:59:25.660Z,50.54
2022-08-10T03:01:55.767Z,50.34
2022-08-10T03:04:54.871Z,50.47
2022-08-10T03:07:43.261Z,50.58
2022-08-10T03:10:15.410Z,50.83
2022-08-10T03:12:45.622Z,50.59
2022-08-10T03:15:15.497Z,50.76
2022-08-10T03:17:57.417Z,50.40
2022-08-10T03:20:37.728Z,50.55
2022-08-10T03:23:27.285Z,50.60
2022-08-10T03:25:57.547Z,50.60
2022-08-10T03:28:28.111Z,50.45
2022-08-10T03:30:58.271Z,50.57
2022-08-10T03:33:31.096Z,50.48
2022-08-10T03:36:43.673Z,50.43
2022-08-10T03:38:51.426Z,50.42
2022-08-10T03:41:20.598Z,50.84
2022-08-10T03:43:49.677Z,51.03
2022-08-10T03:46:23.163Z,50.75
2022-08-10T03:48:54.025Z,50.69
2022-08-10T03:51:23.930Z,50.66
2022-08-10T03:54:04.779Z,50.73
2022-08-10T03:56:38.660Z,50.73
2022-08-10T03:59:08.900Z,50.58
2022-08-10T04:02:45.904Z,50.48
2022-08-10T04:04:25.388Z,50.40
2022-08-10T04:06:56.182Z,50.47
2022-08-10T04:09:43.186Z,50.43
2022-08-10T04:12:15.904Z,50.41
2022-08-10T04:14:51.073Z,50.38
2022-08-10T04:18:02.602Z,50.12
2022-08-10T04:20:24.840Z,50.67
2022-08-10T04:22:53.670Z,50.84
2022-08-10T04:25:24.199Z,50.96
2022-08-10T04:27:53.350Z,51.06
2022-08-10T04:30:21.240Z,50.91
2022-08-10T04:32:53.741Z,50.85
2022-08-10T04:35:23.118Z,50.69
2022-08-10T04:37:51.421Z,51.06
2022-08-10T04:40:28.637Z,51.48
2022-08-10T04:43:12.940Z,51.61
2022-08-10T04:45:48.895Z,51.59
2022-08-10T04:48:41.419Z,51.55
2022-08-10T04:51:11.042Z,51.06
2022-08-10T04:54:03.189Z,50.92
2022-08-10T04:56:34.016Z,51.33
2022-08-10T04:59:01.320Z,51.39
2022-08-10T05:02:13.516Z,50.76
2022-08-10T05:04:37.899Z,50.42
2022-08-10T05:07:06.732Z,50.50
2022-08-10T05:09:33.975Z,50.46
2022-08-10T05:12:21.576Z,50.63
2022-08-10T05:14:49.527Z,50.50
2022-08-10T05:17:16.737Z,50.63
2022-08-10T05:20:03.133Z,52.07
2022-08-10T05:22:31.223Z,51.52
2022-08-10T05:24:58.477Z,51.63
2022-08-10T05:27:25.767Z,51.41
2022-08-10T05:30:01.825Z,51.60
2022-08-10T05:32:31.989Z,51.73
2022-08-10T05:34:59.475Z,51.45
2022-08-10T05:38:11.947Z,51.65
2022-08-10T05:40:18.300Z,51.87
2022-08-10T05:42:45.556Z,51.62
2022-08-10T05:45:20.407Z,51.23
2022-08-10T05:48:55.530Z,51.52
2022-08-10T05:50:36.072Z,51.51
2022-08-10T05:53:59.233Z,51.30
2022-08-10T05:55:50.876Z,51.47
2022-08-10T05:58:18.537Z,51.46
2022-08-10T06:00:54.441Z,51.72
2022-08-10T06:03:37.828Z,51.41
2022-08-10T06:06:08.060Z,51.84
2022-08-10T06:08:37.993Z,51.51
2022-08-10T06:12:23.692Z,52.02
2022-08-10T06:14:23.333Z,51.46
2022-08-10T06:16:57.424Z,51.16
2022-08-10T06:19:26.025Z,51.42
2022-08-10T06:22:01.248Z,51.10
2022-08-10T06:24:36.371Z,50.85
2022-08-10T06:27:04.165Z,50.73
2022-08-10T06:29:35.739Z,51.61
2022-08-10T06:32:04.900Z,51.31
2022-08-10T06:34:34.083Z,51.24
2022-08-10T06:37:05.413Z,50.92
2022-08-10T06:39:34.831Z,50.86
2022-08-10T06:42:16.699Z,50.85
2022-08-10T06:44:54.749Z,50.73
2022-08-10T06:47:26.782Z,50.63
2022-08-10T06:49:59.585Z,51.46
2022-08-10T06:52:30.745Z,51.25
2022-08-10T06:55:00.673Z,52.20
2022-08-10T06:57:31.425Z,50.76
2022-08-10T07:00:02.628Z,50.88
2022-08-10T07:02:41.513Z,51.47
2022-08-10T07:05:13.632Z,51.20
2022-08-10T07:07:43.788Z,50.41
2022-08-10T07:10:13.267Z,51.02
2022-08-10T07:12:41.204Z,51.18
2022-08-10T07:15:12.284Z,49.59
2022-08-10T07:17:40.822Z,49.20
2022-08-10T07:20:10.001Z,50.12
2022-08-10T07:23:01.207Z,49.33
2022-08-10T07:25:29.100Z,48.93
2022-08-10T07:28:01.952Z,49.15
2022-08-10T07:30:35.930Z,49.03
2022-08-10T07:33:05.463Z,50.38
2022-08-10T07:35:42.220Z,50.01
2022-08-10T07:38:18.945Z,49.71
2022-08-10T07:40:49.155Z,48.37
2022-08-10T07:43:17.985Z,48.29
2022-08-10T07:45:47.580Z,49.64
2022-08-10T07:48:28.881Z,50.16
2022-08-10T07:51:00.249Z,49.50
2022-08-10T07:53:39.924Z,49.73
2022-08-10T07:56:21.180Z,51.02
2022-08-10T07:59:07.869Z,51.24
2022-08-10T08:01:41.051Z,51.45
2022-08-10T08:04:12.400Z,51.62
2022-08-10T08:06:41.981Z,51.49
2022-08-10T08:09:10.893Z,51.66
2022-08-10T08:11:41.227Z,51.60
2022-08-10T08:14:09.535Z,51.25
2022-08-10T08:16:41.525Z,50.99
2022-08-10T08:19:26.639Z,50.55
2022-08-10T08:24:10.166Z,50.38
2022-08-10T08:24:44.722Z,50.76
2022-08-10T08:27:19.586Z,49.64
2022-08-10T08:29:49.501Z,49.86
2022-08-10T08:32:19.914Z,49.43
2022-08-10T08:34:49.356Z,50.02
2022-08-10T08:38:32.555Z,48.60
2022-08-10T08:40:13.920Z,48.88
2022-08-10T08:43:21.784Z,48.42
2022-08-10T08:46:01.925Z,48.12
2022-08-10T08:48:47.534Z,47.16
2022-08-10T08:52:07.330Z,47.83
2022-08-10T08:54:56.722Z,47.85
2022-08-10T08:57:50.024Z,47.33
2022-08-10T09:00:30.164Z,46.64
2022-08-10T09:03:18.576Z,46.20
2022-08-10T09:06:01.681Z,45.54
2022-08-10T09:08:40.675Z,45.08
2022-08-10T09:11:19.826Z,44.84
2022-08-10T09:14:15.819Z,45.20
2022-08-10T09:17:13.828Z,43.88
2022-08-10T09:20:06.977Z,43.51
2022-08-10T09:23:02.248Z,44.14
2022-08-10T09:25:38.252Z,43.86
2022-08-10T09:28:05.548Z,44.13
2022-08-10T09:31:03.156Z,44.45
2022-08-10T09:36:22.443Z,43.43
2022-08-10T09:37:00.290Z,42.88
2022-08-10T09:40:55.914Z,42.48
2022-08-10T09:42:35.982Z,42.94
2022-08-10T09:45:12.800Z,40.98
2022-08-10T09:48:15.383Z,40.14
2022-08-10T09:51:34.906Z,39.07
2022-08-10T09:54:15.625Z,39.40
2022-08-10T09:56:45.432Z,39.12
2022-08-10T09:59:47.283Z,39.95
2022-08-10T10:02:27.613Z,38.96
2022-08-10T10:05:06.796Z,39.42
2022-08-10T10:07:39.699Z,39.32
2022-08-10T10:10:32.845Z,37.67
2022-08-10T10:13:06.960Z,38.33
2022-08-10T10:15:53.079Z,38.83
2022-08-10T10:18:32.496Z,37.78
2022-08-10T10:21:02.805Z,37.10
2022-08-10T10:24:21.350Z,38.13
2022-08-10T10:26:52.682Z,37.69
2022-08-10T10:29:57.975Z,36.88
2022-08-10T10:32:58.427Z,35.50
2022-08-10T10:35:41.384Z,35.01
2022-08-10T10:38:11.885Z,34.16
2022-08-10T10:40:52.912Z,34.66
2022-08-10T10:43:32.080Z,35.12
2022-08-10T10:46:11.572Z,35.37
2022-08-10T10:49:16.139Z,33.74
2022-08-10T10:52:20.236Z,34.43
2022-08-10T10:54:59.863Z,33.91
2022-08-10T10:57:59.319Z,34.66
2022-08-10T11:00:39.249Z,33.27
2022-08-10T11:03:36.537Z,32.64
2022-08-10T11:06:20.650Z,31.32
2022-08-10T11:08:57.676Z,31.93
2022-08-10T11:12:01.563Z,32.14
2022-08-10T11:14:30.041Z,32.29
2022-08-10T11:17:05.955Z,32.26
2022-08-10T11:20:10.445Z,31.39
2022-08-10T11:22:53.379Z,30.67
2022-08-10T11:25:25.870Z,30.81
2022-08-10T11:28:08.336Z,30.18
2022-08-10T11:31:01.036Z,30.91
2022-08-10T11:34:46.792Z,31.73
2022-08-10T11:36:58.985Z,32.32
2022-08-10T11:39:49.494Z,32.40
2022-08-10T11:42:41.999Z,30.89
2022-08-10T11:45:21.332Z,31.68
2022-08-10T11:47:53.569Z,30.70
2022-08-10T11:50:28.096Z,31.06
2022-08-10T11:53:38.773Z,32.32
2022-08-10T11:56:11.178Z,31.93
2022-08-10T11:59:01.758Z,31.81
2022-08-10T12:01:45.659Z,30.61
2022-08-10T12:04:15.011Z,30.85
2022-08-10T12:06:59.293Z,30.59
2022-08-10T12:10:11.057Z,30.59
2022-08-10T12:12:17.152Z,29.63
2022-08-10T12:15:03.290Z,30.29
2022-08-10T12:17:37.583Z,30.38
2022-08-10T12:20:09.757Z,29.43
2022-08-10T12:22:59.352Z,30.42
2022-08-10T12:25:56.884Z,30.09
2022-08-10T12:28:50.030Z,30.05
2022-08-10T12:31:35.183Z,29.40
2022-08-10T12:34:40.325Z,29.29
2022-08-10T12:37:38.397Z,30.21
2022-08-10T12:40:34.336Z,30.24
2022-08-10T12:44:04.620Z,29.78
2022-08-10T12:46:18.392Z,29.07
2022-08-10T12:48:57.950Z,29.02
2022-08-10T12:51:31.308Z,29.78
2022-08-10T12:54:31.862Z,29.45
2022-08-10T12:57:04.772Z,29.46
2022-08-10T12:59:33.136Z,29.56
2022-08-10T13:02:24.592Z,28.96
2022-08-10T13:04:56.252Z,28.89
2022-08-10T13:08:25.655Z,29.65
2022-08-10T13:10:21.048Z,29.68
2022-08-10T13:12:52.233Z,29.50
2022-08-10T13:15:48.541Z,29.86
2022-08-10T13:18:18.174Z,30.69
2022-08-10T13:20:52.276Z,29.56
2022-08-10T13:23:28.188Z,28.83
2022-08-10T13:25:59.454Z,28.26
2022-08-10T13:28:39.992Z,27.70
2022-08-10T13:31:16.634Z,28.70
2022-08-10T13:34:38.863Z,28.60
2022-08-10T13:36:40.274Z,28.94
2022-08-10T13:39:08.590Z,29.05
2022-08-10T13:41:40.533Z,27.40
2022-08-10T13:44:11.356Z,27.26
2022-08-10T13:46:42.022Z,28.22
2022-08-10T13:49:11.300Z,28.31
2022-08-10T13:51:57.743Z,27.64
2022-08-10T13:54:29.645Z,27.25
2022-08-10T13:56:58.707Z,27.33
2022-08-10T14:00:33.006Z,26.08
2022-08-10T14:02:25.165Z,26.38
2022-08-10T14:04:55.725Z,27.58
2022-08-10T14:07:24.364Z,27.48
2022-08-10T14:09:53.138Z,26.60
2022-08-10T14:12:31.872Z,27.29
2022-08-10T14:15:03.620Z,27.06
2022-08-10T14:17:32.470Z,27.55
2022-08-10T14:20:02.524Z,26.69
2022-08-10T14:22:33.540Z,26.99
2022-08-10T14:25:13.465Z,26.54
2022-08-10T14:28:03.610Z,26.72
2022-08-10T14:30:33.769Z,26.14
2022-08-10T14:33:04.637Z,26.04
2022-08-10T14:36:21.107Z,25.81
2022-08-10T14:38:32.163Z,25.52
2022-08-10T14:41:02.526Z,25.58
2022-08-10T14:43:42.533Z,24.96
2022-08-10T14:46:11.522Z,25.39
2022-08-10T14:48:47.631Z,24.93
2022-08-10T14:51:18.168Z,25.16
2022-08-10T14:53:53.669Z,24.72
2022-08-10T14:56:27.880Z,24.53
2022-08-10T14:59:07.127Z,24.97
2022-08-10T15:02:37.753Z,24.40
2022-08-10T15:04:30.730Z,24.64
2022-08-10T15:07:12.099Z,24.04
2022-08-10T15:10:01.136Z,24.11
2022-08-10T15:12:35.536Z,24.25
2022-08-10T15:15:07.537Z,23.78
2022-08-10T15:17:44.323Z,22.44
2022-08-10T15:20:20.752Z,23.15
2022-08-10T15:22:52.054Z,22.72
2022-08-10T15:25:24.902Z,22.34
2022-08-10T15:28:06.519Z,22.62
2022-08-10T15:30:41.209Z,23.04
2022-08-10T15:33:59.535Z,22.87
2022-08-10T15:36:40.112Z,22.73
2022-08-10T15:40:20.580Z,22.25
2022-08-10T15:42:16.219Z,22.74
2022-08-10T15:44:45.568Z,22.53
2022-08-10T15:47:44.975Z,21.95
2022-08-10T15:50:40.238Z,22.23
2022-08-10T15:53:15.618Z,22.44
2022-08-10T15:55:56.801Z,22.75
2022-08-10T15:58:39.144Z,22.37
2022-08-10T16:02:14.398Z,22.29
2022-08-10T16:04:10.917Z,21.84
2022-08-10T16:06:44.701Z,22.46
2022-08-10T16:10:26.306Z,22.23
2022-08-10T16:12:13.292Z,22.32
2022-08-10T16:14:44.917Z,22.21
2022-08-10T16:17:13.412Z,22.06
2022-08-10T16:19:50.829Z,22.25
2022-08-10T16:22:36.739Z,21.68
2022-08-10T16:25:16.995Z,22.00
2022-08-10T16:27:46.081Z,22.46
2022-08-10T16:30:14.967Z,22.02
2022-08-10T16:32:46.665Z,22.22
2022-08-10T16:35:17.796Z,22.09
2022-08-10T16:37:58.163Z,22.02
2022-08-10T16:40:29.554Z,22.35
2022-08-10T16:42:59.805Z,22.42
2022-08-10T16:45:31.611Z,22.17
2022-08-10T16:48:00.887Z,22.41
2022-08-10T16:50:39.594Z,22.69
2022-08-10T16:53:11.335Z,22.36
2022-08-10T16:55:49.893Z,22.39
2022-08-10T16:58:34.288Z,22.38
2022-08-10T17:01:24.214Z,23.02
2022-08-10T17:04:08.355Z,23.07
2022-08-10T17:06:44.153Z,23.55
2022-08-10T17:09:20.476Z,23.69
2022-08-10T17:11:51.522Z,23.73
2022-08-10T17:14:24.065Z,23.37
2022-08-10T17:16:53.231Z,23.33
2022-08-10T17:19:25.675Z,23.63
2022-08-10T17:21:56.690Z,23.79
2022-08-10T17:24:37.556Z,24.13
2022-08-10T17:28:33.235Z,24.08
2022-08-10T17:30:03.908Z,24.31
2022-08-10T17:32:43.807Z,24.40
2022-08-10T17:35:23.430Z,24.79
2022-08-10T17:38:03.075Z,24.73
2022-08-10T17:40:33.266Z,24.73
2022-08-10T17:43:02.396Z,24.94
2022-08-10T17:45:48.822Z,25.04
2022-08-10T17:48:27.188Z,25.00
2022-08-10T17:50:54.913Z,25.34
2022-08-10T17:53:28.270Z,25.71
2022-08-10T17:55:58.011Z,26.31
2022-08-10T17:58:27.828Z,26.64
2022-08-10T18:00:57.731Z,27.14
2022-08-10T18:03:51.131Z,27.44
2022-08-10T18:06:19.645Z,27.52
2022-08-10T18:08:54.862Z,27.68
2022-08-10T18:11:23.274Z,28.16
2022-08-10T18:13:56.987Z,28.81
2022-08-10T18:16:30.181Z,28.68
2022-08-10T18:19:00.324Z,28.55
2022-08-10T18:21:30.784Z,29.18
2022-08-10T18:24:07.504Z,29.09
2022-08-10T18:26:37.269Z,29.51
2022-08-10T18:29:08.685Z,29.71
2022-08-10T18:31:37.343Z,30.29
2022-08-10T18:34:07.803Z,30.63
2022-08-10T18:36:47.037Z,30.91
2022-08-10T18:39:20.146Z,31.38
2022-08-10T18:42:00.755Z,31.60
2022-08-10T18:44:57.250Z,31.40
2022-08-10T18:47:59.075Z,31.98
2022-08-10T18:50:37.649Z,32.03
2022-08-10T18:53:12.801Z,32.67
2022-08-10T18:56:08.774Z,33.85
2022-08-10T18:58:37.874Z,33.67
2022-08-10T19:01:32.384Z,34.00
2022-08-10T19:04:31.009Z,34.76
2022-08-10T19:07:08.849Z,35.14
2022-08-10T19:09:51.196Z,35.22
2022-08-10T19:13:00.691Z,35.84
2022-08-10T19:15:48.397Z,35.93
2022-08-10T19:18:18.490Z,36.47
2022-08-10T19:20:57.457Z,37.02
2022-08-10T19:23:55.719Z,37.37
2022-08-10T19:26:45.705Z,37.50
2022-08-10T19:30:07.862Z,37.82
2022-08-10T19:32:47.800Z,38.20
2022-08-10T19:36:03.328Z,37.94
2022-08-10T19:38:50.322Z,38.18
2022-08-10T19:41:32.315Z,38.79
2022-08-10T19:44:33.286Z,38.94
2022-08-10T19:47:07.020Z,39.11
2022-08-10T19:49:55.321Z,39.62
2022-08-10T19:52:40.934Z,39.89
2022-08-10T19:55:29.070Z,40.50
2022-08-10T19:58:29.380Z,39.87
2022-08-10T20:01:05.119Z,40.04
2022-08-10T20:03:40.008Z,40.63
2022-08-10T20:06:39.858Z,40.85
2022-08-10T20:09:09.948Z,41.09
2022-08-10T20:11:57.718Z,40.88
2022-08-10T20:14:33.220Z,41.08
2022-08-10T20:17:04.296Z,41.22
2022-08-10T20:19:54.752Z,42.10
2022-08-10T20:22:51.404Z,41.98
2022-08-10T20:25:25.002Z,41.73
2022-08-10T20:28:19.864Z,42.45
2022-08-10T20:30:52.980Z,43.51
2022-08-10T20:33:27.271Z,43.79
2022-08-10T20:36:05.923Z,42.91
2022-08-10T20:38:48.214Z,43.23
2022-08-10T20:41:28.590Z,43.59
2022-08-10T20:44:05.052Z,44.15
2022-08-10T20:46:35.302Z,44.94
2022-08-10T20:49:34.522Z,45.33
2022-08-10T20:52:03.522Z,44.95
2022-08-10T20:54:53.229Z,45.95
2022-08-10T20:57:55.252Z,45.36
2022-08-10T21:00:36.661Z,45.98
2022-08-10T21:03:35.009Z,45.71
2022-08-10T21:06:41.002Z,46.22
2022-08-10T21:09:44.118Z,46.36
2022-08-10T21:12:16.055Z,46.29
2022-08-10T21:15:17.604Z,47.44
2022-08-10T21:18:08.748Z,47.91
2022-08-10T21:21:41.789Z,47.43
2022-08-10T21:24:21.028Z,48.13
2022-08-10T21:27:06.622Z,48.29
2022-08-10T21:29:56.604Z,48.84
2022-08-10T21:32:37.479Z,48.98
2022-08-10T21:35:37.005Z,49.21
2022-08-10T21:38:19.620Z,49.29
2022-08-10T21:41:18.176Z,49.60
2022-08-10T21:44:16.000Z,49.90
2022-08-10T21:47:08.483Z,50.21
2022-08-10T21:50:07.577Z,50.55
2022-08-10T21:53:04.469Z,50.58
2022-08-10T21:56:07.205Z,50.54
2022-08-10T21:59:22.149Z,50.27
2022-08-10T22:02:22.128Z,50.28
2022-08-10T22:05:18.868Z,50.91
2022-08-10T22:08:12.707Z,50.79
2022-08-10T22:11:06.989Z,51.06
2022-08-10T22:14:01.492Z,51.29
2022-08-10T22:17:59.557Z,51.39
2022-08-10T22:20:25.129Z,51.85
2022-08-10T22:23:28.899Z,51.87
2022-08-10T22:26:32.849Z,52.32
2022-08-10T22:29:20.555Z,52.37
2022-08-10T22:32:20.761Z,52.02
2022-08-10T22:35:21.767Z,51.91
2022-08-10T22:38:23.261Z,52.29
2022-08-10T22:41:10.924Z,52.75
2022-08-10T22:43:58.223Z,52.90
2022-08-10T22:46:48.966Z,52.93
2022-08-10T22:49:23.612Z,53.13
2022-08-10T22:52:02.620Z,53.34
2022-08-10T22:55:09.673Z,53.00
2022-08-10T22:58:06.365Z,54.27
2022-08-10T23:00:34.682Z,53.69
2022-08-10T23:03:11.306Z,53.49
2022-08-10T23:05:44.696Z,53.78
2022-08-10T23:08:30.661Z,53.75
2022-08-10T23:11:05.158Z,53.49
2022-08-10T23:13:37.413Z,53.78
2022-08-10T23:16:28.372Z,54.34
2022-08-10T23:19:10.796Z,53.87
2022-08-10T23:22:05.030Z,54.58
2022-08-10T23:24:37.588Z,54.36
2022-08-10T23:27:13.251Z,54.40
2022-08-10T23:30:10.100Z,54.82
2022-08-10T23:32:47.852Z,55.36
2022-08-10T23:36:30.007Z,55.32
2022-08-10T23:38:12.271Z,55.27
2022-08-10T23:40:45.077Z,55.45
2022-08-10T23:43:21.996Z,55.39
2022-08-10T23:45:54.544Z,55.69
2022-08-10T23:48:26.476Z,55.66
2022-08-10T23:50:59.564Z,55.16
2022-08-10T23:53:31.685Z,54.88
2022-08-10T23:56:10.460Z,54.99
2022-08-10T23:58:45.049Z,55.26
